sensor_id;sensor_type;location;lat;lon;timestamp;temperature;humidity
10903;DHT22;5504;47.312;11.060;2024-01-30T00:01:37;2.20;84.40
10903;DHT22;5504;47.312;11.060;2024-01-30T00:04:03;1.90;84.50
10903;DHT22;5504;47.312;11.060;2024-01-30T00:06:28;1.80;84.90
10903;DHT22;5504;47.312;11.060;2024-01-30T00:08:54;1.90;85.40
10903;DHT22;5504;47.312;11.060;2024-01-30T00:11:20;1.90;85.40
10903;DHT22;5504;47.312;11.060;2024-01-30T00:13:46;1.90;85.30
10903;DHT22;5504;47.312;11.060;2024-01-30T00:16:25;1.80;85.60
10903;DHT22;5504;47.312;11.060;2024-01-30T00:18:51;1.90;85.70
10903;DHT22;5504;47.312;11.060;2024-01-30T00:21:18;2.10;85.10
10903;DHT22;5504;47.312;11.060;2024-01-30T00:23:44;2.10;84.60
10903;DHT22;5504;47.312;11.060;2024-01-30T00:26:10;2.10;84.60
10903;DHT22;5504;47.312;11.060;2024-01-30T00:28:40;2.00;84.40
10903;DHT22;5504;47.312;11.060;2024-01-30T00:31:06;2.10;84.50
10903;DHT22;5504;47.312;11.060;2024-01-30T00:33:32;2.00;84.30
10903;DHT22;5504;47.312;11.060;2024-01-30T00:35:58;1.80;84.40
10903;DHT22;5504;47.312;11.060;2024-01-30T00:38:24;1.70;84.90
10903;DHT22;5504;47.312;11.060;2024-01-30T00:40:49;1.70;85.40
10903;DHT22;5504;47.312;11.060;2024-01-30T00:43:15;1.70;86.30
10903;DHT22;5504;47.312;11.060;2024-01-30T00:45:45;1.80;86.10
10903;DHT22;5504;47.312;11.060;2024-01-30T00:48:10;1.80;85.70
10903;DHT22;5504;47.312;11.060;2024-01-30T00:50:36;1.90;85.40
10903;DHT22;5504;47.312;11.060;2024-01-30T00:53:02;1.80;85.40
10903;DHT22;5504;47.312;11.060;2024-01-30T00:55:28;1.80;85.50
10903;DHT22;5504;47.312;11.060;2024-01-30T00:57:53;1.90;85.30
10903;DHT22;5504;47.312;11.060;2024-01-30T01:00:19;2.00;85.10
10903;DHT22;5504;47.312;11.060;2024-01-30T01:02:46;1.80;84.70
10903;DHT22;5504;47.312;11.060;2024-01-30T01:05:12;1.80;85.00
10903;DHT22;5504;47.312;11.060;2024-01-30T01:07:38;1.80;85.20
10903;DHT22;5504;47.312;11.060;2024-01-30T01:10:04;1.80;85.50
10903;DHT22;5504;47.312;11.060;2024-01-30T01:12:29;1.90;85.40
10903;DHT22;5504;47.312;11.060;2024-01-30T01:14:55;1.90;85.00
10903;DHT22;5504;47.312;11.060;2024-01-30T01:17:21;1.70;85.00
10903;DHT22;5504;47.312;11.060;2024-01-30T01:19:46;1.70;85.30
10903;DHT22;5504;47.312;11.060;2024-01-30T01:22:12;1.70;85.50
10903;DHT22;5504;47.312;11.060;2024-01-30T01:24:38;1.90;85.20
10903;DHT22;5504;47.312;11.060;2024-01-30T01:27:05;1.80;84.70
10903;DHT22;5504;47.312;11.060;2024-01-30T01:29:31;1.70;84.90
10903;DHT22;5504;47.312;11.060;2024-01-30T01:31:58;1.80;85.40
10903;DHT22;5504;47.312;11.060;2024-01-30T01:34:24;1.90;84.90
10903;DHT22;5504;47.312;11.060;2024-01-30T01:36:51;1.80;84.90
10903;DHT22;5504;47.312;11.060;2024-01-30T01:39:17;1.80;84.80
10903;DHT22;5504;47.312;11.060;2024-01-30T01:41:42;1.80;85.30
10903;DHT22;5504;47.312;11.060;2024-01-30T01:44:09;1.60;84.30
10903;DHT22;5504;47.312;11.060;2024-01-30T01:46:35;1.60;85.20
10903;DHT22;5504;47.312;11.060;2024-01-30T01:49:02;1.70;85.30
10903;DHT22;5504;47.312;11.060;2024-01-30T01:51:31;1.70;85.20
10903;DHT22;5504;47.312;11.060;2024-01-30T01:54:01;1.70;85.20
10903;DHT22;5504;47.312;11.060;2024-01-30T01:56:29;1.80;84.80
10903;DHT22;5504;47.312;11.060;2024-01-30T01:59:00;1.70;85.00
10903;DHT22;5504;47.312;11.060;2024-01-30T02:01:31;1.70;85.00
10903;DHT22;5504;47.312;11.060;2024-01-30T02:03:59;1.70;84.60
10903;DHT22;5504;47.312;11.060;2024-01-30T02:06:24;1.70;84.80
10903;DHT22;5504;47.312;11.060;2024-01-30T02:08:50;1.70;85.20
10903;DHT22;5504;47.312;11.060;2024-01-30T02:11:16;1.70;85.50
10903;DHT22;5504;47.312;11.060;2024-01-30T02:13:42;1.70;85.50
10903;DHT22;5504;47.312;11.060;2024-01-30T02:16:08;1.80;85.50
10903;DHT22;5504;47.312;11.060;2024-01-30T02:18:33;1.80;85.00
10903;DHT22;5504;47.312;11.060;2024-01-30T02:21:04;1.70;84.40
10903;DHT22;5504;47.312;11.060;2024-01-30T02:23:30;1.50;84.60
10903;DHT22;5504;47.312;11.060;2024-01-30T02:25:57;1.40;85.70
10903;DHT22;5504;47.312;11.060;2024-01-30T02:28:23;1.60;85.60
10903;DHT22;5504;47.312;11.060;2024-01-30T02:30:49;1.80;85.30
10903;DHT22;5504;47.312;11.060;2024-01-30T02:33:14;1.80;84.70
10903;DHT22;5504;47.312;11.060;2024-01-30T02:35:40;1.90;84.30
10903;DHT22;5504;47.312;11.060;2024-01-30T02:38:06;1.70;83.80
10903;DHT22;5504;47.312;11.060;2024-01-30T02:40:32;1.60;84.60
10903;DHT22;5504;47.312;11.060;2024-01-30T02:42:59;1.50;84.90
10903;DHT22;5504;47.312;11.060;2024-01-30T02:45:25;1.50;85.20
10903;DHT22;5504;47.312;11.060;2024-01-30T02:47:51;1.50;85.50
10903;DHT22;5504;47.312;11.060;2024-01-30T02:50:17;1.50;85.60
10903;DHT22;5504;47.312;11.060;2024-01-30T02:52:43;1.40;85.60
10903;DHT22;5504;47.312;11.060;2024-01-30T02:55:09;1.30;85.70
10903;DHT22;5504;47.312;11.060;2024-01-30T02:57:35;1.40;85.80
10903;DHT22;5504;47.312;11.060;2024-01-30T03:00:01;1.50;85.30
10903;DHT22;5504;47.312;11.060;2024-01-30T03:02:29;1.30;85.40
10903;DHT22;5504;47.312;11.060;2024-01-30T03:04:54;1.30;85.70
10903;DHT22;5504;47.312;11.060;2024-01-30T03:07:20;1.40;85.90
10903;DHT22;5504;47.312;11.060;2024-01-30T03:09:46;1.40;85.90
10903;DHT22;5504;47.312;11.060;2024-01-30T03:12:12;1.30;85.70
10903;DHT22;5504;47.312;11.060;2024-01-30T03:14:37;1.40;85.80
10903;DHT22;5504;47.312;11.060;2024-01-30T03:17:03;1.40;85.60
10903;DHT22;5504;47.312;11.060;2024-01-30T03:19:29;1.40;85.60
10903;DHT22;5504;47.312;11.060;2024-01-30T03:21:55;1.40;85.50
10903;DHT22;5504;47.312;11.060;2024-01-30T03:24:20;1.40;85.50
10903;DHT22;5504;47.312;11.060;2024-01-30T03:26:46;1.40;85.80
10903;DHT22;5504;47.312;11.060;2024-01-30T03:29:12;1.50;85.50
10903;DHT22;5504;47.312;11.060;2024-01-30T03:31:39;1.50;85.40
10903;DHT22;5504;47.312;11.060;2024-01-30T03:34:04;1.50;85.20
10903;DHT22;5504;47.312;11.060;2024-01-30T03:36:30;1.60;84.80
10903;DHT22;5504;47.312;11.060;2024-01-30T03:38:58;1.60;84.60
10903;DHT22;5504;47.312;11.060;2024-01-30T03:41:24;1.50;84.50
10903;DHT22;5504;47.312;11.060;2024-01-30T03:43:50;1.40;84.70
10903;DHT22;5504;47.312;11.060;2024-01-30T03:46:16;1.50;85.20
10903;DHT22;5504;47.312;11.060;2024-01-30T03:48:42;1.40;85.10
10903;DHT22;5504;47.312;11.060;2024-01-30T03:51:07;1.30;85.10
10903;DHT22;5504;47.312;11.060;2024-01-30T03:53:34;1.40;85.10
10903;DHT22;5504;47.312;11.060;2024-01-30T03:55:59;1.40;85.10
10903;DHT22;5504;47.312;11.060;2024-01-30T03:58:25;1.40;84.90
10903;DHT22;5504;47.312;11.060;2024-01-30T04:00:51;1.40;85.20
10903;DHT22;5504;47.312;11.060;2024-01-30T04:03:17;1.50;85.40
10903;DHT22;5504;47.312;11.060;2024-01-30T04:05:43;1.50;85.20
10903;DHT22;5504;47.312;11.060;2024-01-30T04:08:09;1.50;84.80
10903;DHT22;5504;47.312;11.060;2024-01-30T04:10:35;1.40;84.50
10903;DHT22;5504;47.312;11.060;2024-01-30T04:13:01;1.20;85.20
10903;DHT22;5504;47.312;11.060;2024-01-30T04:15:27;1.40;85.40
10903;DHT22;5504;47.312;11.060;2024-01-30T04:17:53;1.40;85.40
10903;DHT22;5504;47.312;11.060;2024-01-30T04:20:19;1.40;85.20
10903;DHT22;5504;47.312;11.060;2024-01-30T04:22:45;1.30;84.70
10903;DHT22;5504;47.312;11.060;2024-01-30T04:25:14;1.20;84.70
10903;DHT22;5504;47.312;11.060;2024-01-30T04:27:40;1.20;85.00
10903;DHT22;5504;47.312;11.060;2024-01-30T04:30:06;1.20;85.60
10903;DHT22;5504;47.312;11.060;2024-01-30T04:32:32;1.30;85.30
10903;DHT22;5504;47.312;11.060;2024-01-30T04:34:58;1.30;85.40
10903;DHT22;5504;47.312;11.060;2024-01-30T04:37:24;1.30;85.30
10903;DHT22;5504;47.312;11.060;2024-01-30T04:39:50;1.10;85.30
10903;DHT22;5504;47.312;11.060;2024-01-30T04:42:17;1.10;85.80
10903;DHT22;5504;47.312;11.060;2024-01-30T04:44:42;1.10;85.80
10903;DHT22;5504;47.312;11.060;2024-01-30T04:47:08;1.20;85.70
10903;DHT22;5504;47.312;11.060;2024-01-30T04:49:36;1.10;85.80
10903;DHT22;5504;47.312;11.060;2024-01-30T04:52:02;1.20;85.60
10903;DHT22;5504;47.312;11.060;2024-01-30T04:54:28;1.30;85.00
10903;DHT22;5504;47.312;11.060;2024-01-30T04:56:54;1.30;85.60
10903;DHT22;5504;47.312;11.060;2024-01-30T04:59:19;1.30;84.60
10903;DHT22;5504;47.312;11.060;2024-01-30T05:01:45;1.20;84.20
10903;DHT22;5504;47.312;11.060;2024-01-30T05:04:11;1.20;84.60
10903;DHT22;5504;47.312;11.060;2024-01-30T05:06:37;1.20;85.00
10903;DHT22;5504;47.312;11.060;2024-01-30T05:09:03;1.10;85.60
10903;DHT22;5504;47.312;11.060;2024-01-30T05:11:36;1.20;85.30
10903;DHT22;5504;47.312;11.060;2024-01-30T05:14:02;1.30;84.60
10903;DHT22;5504;47.312;11.060;2024-01-30T05:16:27;1.20;84.80
10903;DHT22;5504;47.312;11.060;2024-01-30T05:18:53;1.10;85.20
10903;DHT22;5504;47.312;11.060;2024-01-30T05:21:19;1.00;85.60
10903;DHT22;5504;47.312;11.060;2024-01-30T05:23:44;1.00;85.70
10903;DHT22;5504;47.312;11.060;2024-01-30T05:26:10;1.10;85.60
10903;DHT22;5504;47.312;11.060;2024-01-30T05:28:36;1.20;85.40
10903;DHT22;5504;47.312;11.060;2024-01-30T05:31:02;1.10;85.40
10903;DHT22;5504;47.312;11.060;2024-01-30T05:33:28;1.10;85.60
10903;DHT22;5504;47.312;11.060;2024-01-30T05:35:54;0.80;86.00
10903;DHT22;5504;47.312;11.060;2024-01-30T05:38:20;0.90;86.30
10903;DHT22;5504;47.312;11.060;2024-01-30T05:40:46;1.00;86.40
10903;DHT22;5504;47.312;11.060;2024-01-30T05:43:12;1.20;85.90
10903;DHT22;5504;47.312;11.060;2024-01-30T05:45:37;1.20;85.30
10903;DHT22;5504;47.312;11.060;2024-01-30T05:48:04;1.30;84.90
10903;DHT22;5504;47.312;11.060;2024-01-30T05:50:30;1.20;84.60
10903;DHT22;5504;47.312;11.060;2024-01-30T05:52:56;1.00;85.10
10903;DHT22;5504;47.312;11.060;2024-01-30T05:55:22;1.20;85.40
10903;DHT22;5504;47.312;11.060;2024-01-30T05:57:48;1.20;84.60
10903;DHT22;5504;47.312;11.060;2024-01-30T06:00:14;1.30;84.90
10903;DHT22;5504;47.312;11.060;2024-01-30T06:02:40;1.30;84.70
10903;DHT22;5504;47.312;11.060;2024-01-30T06:05:06;1.10;84.10
10903;DHT22;5504;47.312;11.060;2024-01-30T06:07:31;1.00;84.60
10903;DHT22;5504;47.312;11.060;2024-01-30T06:09:57;0.90;85.80
10903;DHT22;5504;47.312;11.060;2024-01-30T06:12:23;0.90;85.90
10903;DHT22;5504;47.312;11.060;2024-01-30T06:14:49;0.80;86.20
10903;DHT22;5504;47.312;11.060;2024-01-30T06:17:14;0.80;86.50
10903;DHT22;5504;47.312;11.060;2024-01-30T06:19:40;0.80;86.60
10903;DHT22;5504;47.312;11.060;2024-01-30T06:22:07;0.80;86.50
10903;DHT22;5504;47.312;11.060;2024-01-30T06:24:33;0.80;86.70
10903;DHT22;5504;47.312;11.060;2024-01-30T06:26:59;0.80;87.10
10903;DHT22;5504;47.312;11.060;2024-01-30T06:29:26;1.00;86.30
10903;DHT22;5504;47.312;11.060;2024-01-30T06:31:52;1.00;85.80
10903;DHT22;5504;47.312;11.060;2024-01-30T06:34:18;1.10;85.30
10903;DHT22;5504;47.312;11.060;2024-01-30T06:36:43;1.30;85.70
10903;DHT22;5504;47.312;11.060;2024-01-30T06:39:09;1.20;84.50
10903;DHT22;5504;47.312;11.060;2024-01-30T06:41:35;1.10;85.20
10903;DHT22;5504;47.312;11.060;2024-01-30T06:44:02;1.10;85.30
10903;DHT22;5504;47.312;11.060;2024-01-30T06:46:30;1.10;85.30
10903;DHT22;5504;47.312;11.060;2024-01-30T06:48:56;1.10;85.00
10903;DHT22;5504;47.312;11.060;2024-01-30T06:51:21;1.30;84.60
10903;DHT22;5504;47.312;11.060;2024-01-30T06:53:47;1.20;84.30
10903;DHT22;5504;47.312;11.060;2024-01-30T06:56:13;1.10;84.70
10903;DHT22;5504;47.312;11.060;2024-01-30T06:58:39;1.10;85.10
10903;DHT22;5504;47.312;11.060;2024-01-30T07:01:04;1.10;85.30
10903;DHT22;5504;47.312;11.060;2024-01-30T07:03:30;1.20;85.10
10903;DHT22;5504;47.312;11.060;2024-01-30T07:05:56;1.20;84.90
10903;DHT22;5504;47.312;11.060;2024-01-30T07:08:21;1.20;84.90
10903;DHT22;5504;47.312;11.060;2024-01-30T07:10:48;1.30;85.60
10903;DHT22;5504;47.312;11.060;2024-01-30T07:13:13;1.50;86.30
10903;DHT22;5504;47.312;11.060;2024-01-30T07:15:42;1.80;86.00
10903;DHT22;5504;47.312;11.060;2024-01-30T07:18:08;2.20;85.00
10903;DHT22;5504;47.312;11.060;2024-01-30T07:20:35;2.50;83.70
10903;DHT22;5504;47.312;11.060;2024-01-30T07:23:01;2.50;82.30
10903;DHT22;5504;47.312;11.060;2024-01-30T07:25:27;2.90;82.40
10903;DHT22;5504;47.312;11.060;2024-01-30T07:27:55;3.30;81.70
10903;DHT22;5504;47.312;11.060;2024-01-30T07:30:21;3.50;80.40
10903;DHT22;5504;47.312;11.060;2024-01-30T07:32:47;3.60;79.00
10903;DHT22;5504;47.312;11.060;2024-01-30T07:35:14;3.80;78.40
10903;DHT22;5504;47.312;11.060;2024-01-30T07:37:40;4.10;78.00
10903;DHT22;5504;47.312;11.060;2024-01-30T07:40:06;4.40;77.70
10903;DHT22;5504;47.312;11.060;2024-01-30T07:42:33;4.60;76.70
10903;DHT22;5504;47.312;11.060;2024-01-30T07:45:00;4.80;75.60
10903;DHT22;5504;47.312;11.060;2024-01-30T07:47:25;4.80;75.00
10903;DHT22;5504;47.312;11.060;2024-01-30T07:49:51;5.10;74.90
10903;DHT22;5504;47.312;11.060;2024-01-30T07:52:18;5.50;74.20
10903;DHT22;5504;47.312;11.060;2024-01-30T07:54:43;5.60;73.30
10903;DHT22;5504;47.312;11.060;2024-01-30T07:57:09;5.30;73.00
10903;DHT22;5504;47.312;11.060;2024-01-30T07:59:35;5.60;72.90
10903;DHT22;5504;47.312;11.060;2024-01-30T08:02:01;5.70;72.60
10903;DHT22;5504;47.312;11.060;2024-01-30T08:04:27;5.90;72.30
10903;DHT22;5504;47.312;11.060;2024-01-30T08:06:52;6.30;73.10
10903;DHT22;5504;47.312;11.060;2024-01-30T08:09:18;6.60;72.60
10903;DHT22;5504;47.312;11.060;2024-01-30T08:11:44;6.90;71.70
10903;DHT22;5504;47.312;11.060;2024-01-30T08:14:10;7.20;71.40
10903;DHT22;5504;47.312;11.060;2024-01-30T08:16:35;7.50;70.20
10903;DHT22;5504;47.312;11.060;2024-01-30T08:19:02;7.60;68.90
10903;DHT22;5504;47.312;11.060;2024-01-30T08:21:28;7.80;68.90
10903;DHT22;5504;47.312;11.060;2024-01-30T08:23:54;8.10;67.80
10903;DHT22;5504;47.312;11.060;2024-01-30T08:26:19;8.30;67.10
10903;DHT22;5504;47.312;11.060;2024-01-30T08:28:45;8.00;66.30
10903;DHT22;5504;47.312;11.060;2024-01-30T08:31:11;7.70;65.80
10903;DHT22;5504;47.312;11.060;2024-01-30T08:33:37;7.70;66.90
10903;DHT22;5504;47.312;11.060;2024-01-30T08:36:03;8.10;69.20
10903;DHT22;5504;47.312;11.060;2024-01-30T08:38:29;8.40;68.10
10903;DHT22;5504;47.312;11.060;2024-01-30T08:40:55;8.70;68.00
10903;DHT22;5504;47.312;11.060;2024-01-30T08:43:21;9.20;67.20
10903;DHT22;5504;47.312;11.060;2024-01-30T08:45:47;9.60;65.90
10903;DHT22;5504;47.312;11.060;2024-01-30T08:48:13;9.40;64.10
10903;DHT22;5504;47.312;11.060;2024-01-30T08:50:38;9.20;64.20
10903;DHT22;5504;47.312;11.060;2024-01-30T08:53:04;9.60;66.60
10903;DHT22;5504;47.312;11.060;2024-01-30T08:55:30;9.80;65.60
10903;DHT22;5504;47.312;11.060;2024-01-30T08:57:56;9.90;65.60
10903;DHT22;5504;47.312;11.060;2024-01-30T09:00:22;10.50;64.60
10903;DHT22;5504;47.312;11.060;2024-01-30T09:02:47;10.50;63.40
10903;DHT22;5504;47.312;11.060;2024-01-30T09:05:13;10.90;64.10
10903;DHT22;5504;47.312;11.060;2024-01-30T09:07:39;10.80;62.30
10903;DHT22;5504;47.312;11.060;2024-01-30T09:10:05;10.40;58.90
10903;DHT22;5504;47.312;11.060;2024-01-30T09:12:31;10.30;59.00
10903;DHT22;5504;47.312;11.060;2024-01-30T09:14:57;10.00;58.60
10903;DHT22;5504;47.312;11.060;2024-01-30T09:17:23;9.60;58.10
10903;DHT22;5504;47.312;11.060;2024-01-30T09:19:49;10.20;58.90
10903;DHT22;5504;47.312;11.060;2024-01-30T09:22:14;10.70;58.10
10903;DHT22;5504;47.312;11.060;2024-01-30T09:24:40;11.20;58.50
10903;DHT22;5504;47.312;11.060;2024-01-30T09:27:06;11.20;56.30
10903;DHT22;5504;47.312;11.060;2024-01-30T09:29:32;11.70;57.40
10903;DHT22;5504;47.312;11.060;2024-01-30T09:32:00;11.50;54.50
10903;DHT22;5504;47.312;11.060;2024-01-30T09:34:25;11.30;55.30
10903;DHT22;5504;47.312;11.060;2024-01-30T09:36:51;11.10;55.50
10903;DHT22;5504;47.312;11.060;2024-01-30T09:39:17;11.50;54.30
10903;DHT22;5504;47.312;11.060;2024-01-30T09:41:49;11.90;54.10
10903;DHT22;5504;47.312;11.060;2024-01-30T09:44:20;11.90;54.30
10903;DHT22;5504;47.312;11.060;2024-01-30T09:46:47;11.90;55.90
10903;DHT22;5504;47.312;11.060;2024-01-30T09:49:15;12.40;54.10
10903;DHT22;5504;47.312;11.060;2024-01-30T09:51:44;12.60;53.30
10903;DHT22;5504;47.312;11.060;2024-01-30T09:54:14;13.10;52.30
10903;DHT22;5504;47.312;11.060;2024-01-30T09:56:40;13.40;52.30
10903;DHT22;5504;47.312;11.060;2024-01-30T09:59:06;12.90;51.10
10903;DHT22;5504;47.312;11.060;2024-01-30T10:01:32;12.50;52.60
10903;DHT22;5504;47.312;11.060;2024-01-30T10:03:59;12.90;52.20
10903;DHT22;5504;47.312;11.060;2024-01-30T10:06:26;12.90;51.50
10903;DHT22;5504;47.312;11.060;2024-01-30T10:08:53;13.00;54.40
10903;DHT22;5504;47.312;11.060;2024-01-30T10:11:19;13.30;53.80
10903;DHT22;5504;47.312;11.060;2024-01-30T10:13:45;13.40;51.90
10903;DHT22;5504;47.312;11.060;2024-01-30T10:16:14;13.20;52.30
10903;DHT22;5504;47.312;11.060;2024-01-30T10:18:42;13.40;52.30
10903;DHT22;5504;47.312;11.060;2024-01-30T10:21:08;13.20;52.70
10903;DHT22;5504;47.312;11.060;2024-01-30T10:23:34;13.20;51.10
10903;DHT22;5504;47.312;11.060;2024-01-30T10:26:00;13.80;50.40
10903;DHT22;5504;47.312;11.060;2024-01-30T10:28:28;13.00;48.80
10903;DHT22;5504;47.312;11.060;2024-01-30T10:30:59;12.90;49.80
10903;DHT22;5504;47.312;11.060;2024-01-30T10:33:32;13.40;51.20
10903;DHT22;5504;47.312;11.060;2024-01-30T10:36:05;14.10;49.50
10903;DHT22;5504;47.312;11.060;2024-01-30T10:38:32;13.90;48.50
10903;DHT22;5504;47.312;11.060;2024-01-30T10:41:00;14.70;50.60
10903;DHT22;5504;47.312;11.060;2024-01-30T10:43:40;15.10;47.40
10903;DHT22;5504;47.312;11.060;2024-01-30T10:46:27;14.70;47.60
10903;DHT22;5504;47.312;11.060;2024-01-30T10:48:59;15.20;47.30
10903;DHT22;5504;47.312;11.060;2024-01-30T10:51:27;13.10;47.90
10903;DHT22;5504;47.312;11.060;2024-01-30T10:53:53;13.20;48.80
10903;DHT22;5504;47.312;11.060;2024-01-30T10:56:21;13.60;51.10
10903;DHT22;5504;47.312;11.060;2024-01-30T10:58:51;13.60;49.00
10903;DHT22;5504;47.312;11.060;2024-01-30T11:01:23;13.30;48.60
10903;DHT22;5504;47.312;11.060;2024-01-30T11:03:53;14.20;49.70
10903;DHT22;5504;47.312;11.060;2024-01-30T11:06:23;14.60;48.80
10903;DHT22;5504;47.312;11.060;2024-01-30T11:09:03;14.80;47.90
10903;DHT22;5504;47.312;11.060;2024-01-30T11:11:29;15.60;48.60
10903;DHT22;5504;47.312;11.060;2024-01-30T11:13:55;16.00;46.80
10903;DHT22;5504;47.312;11.060;2024-01-30T11:16:21;16.50;46.70
10903;DHT22;5504;47.312;11.060;2024-01-30T11:18:50;16.10;44.50
10903;DHT22;5504;47.312;11.060;2024-01-30T11:21:17;15.10;45.10
10903;DHT22;5504;47.312;11.060;2024-01-30T11:23:43;15.60;46.50
10903;DHT22;5504;47.312;11.060;2024-01-30T11:26:10;15.80;46.00
10903;DHT22;5504;47.312;11.060;2024-01-30T11:28:37;15.50;45.10
10903;DHT22;5504;47.312;11.060;2024-01-30T11:31:07;15.00;46.90
10903;DHT22;5504;47.312;11.060;2024-01-30T11:33:33;15.10;47.70
10903;DHT22;5504;47.312;11.060;2024-01-30T11:36:00;15.20;47.40
10903;DHT22;5504;47.312;11.060;2024-01-30T11:38:28;15.00;46.90
10903;DHT22;5504;47.312;11.060;2024-01-30T11:40:57;15.10;45.70
10903;DHT22;5504;47.312;11.060;2024-01-30T11:43:23;14.30;46.30
10903;DHT22;5504;47.312;11.060;2024-01-30T11:45:49;14.70;48.70
10903;DHT22;5504;47.312;11.060;2024-01-30T11:48:15;14.80;46.90
10903;DHT22;5504;47.312;11.060;2024-01-30T11:50:41;14.80;47.50
10903;DHT22;5504;47.312;11.060;2024-01-30T11:53:07;14.50;48.40
10903;DHT22;5504;47.312;11.060;2024-01-30T11:55:33;14.00;47.20
10903;DHT22;5504;47.312;11.060;2024-01-30T11:58:00;14.20;48.70
10903;DHT22;5504;47.312;11.060;2024-01-30T12:00:26;14.60;54.20
10903;DHT22;5504;47.312;11.060;2024-01-30T12:02:53;14.80;54.00
10903;DHT22;5504;47.312;11.060;2024-01-30T12:05:28;15.10;53.10
10903;DHT22;5504;47.312;11.060;2024-01-30T12:07:53;15.50;52.60
10903;DHT22;5504;47.312;11.060;2024-01-30T12:10:20;15.60;52.70
10903;DHT22;5504;47.312;11.060;2024-01-30T12:12:50;15.80;50.90
10903;DHT22;5504;47.312;11.060;2024-01-30T12:15:18;15.60;48.00
10903;DHT22;5504;47.312;11.060;2024-01-30T12:17:44;15.50;48.20
10903;DHT22;5504;47.312;11.060;2024-01-30T12:20:11;15.60;51.60
10903;DHT22;5504;47.312;11.060;2024-01-30T12:22:45;15.70;52.30
10903;DHT22;5504;47.312;11.060;2024-01-30T12:25:12;15.80;53.10
10903;DHT22;5504;47.312;11.060;2024-01-30T12:27:39;15.80;54.10
10903;DHT22;5504;47.312;11.060;2024-01-30T12:30:12;15.40;52.90
10903;DHT22;5504;47.312;11.060;2024-01-30T12:32:43;15.20;50.70
10903;DHT22;5504;47.312;11.060;2024-01-30T12:35:13;15.00;50.80
10903;DHT22;5504;47.312;11.060;2024-01-30T12:37:40;14.70;51.40
10903;DHT22;5504;47.312;11.060;2024-01-30T12:40:07;14.60;52.50
10903;DHT22;5504;47.312;11.060;2024-01-30T12:42:33;14.40;51.30
10903;DHT22;5504;47.312;11.060;2024-01-30T12:45:00;14.40;50.70
10903;DHT22;5504;47.312;11.060;2024-01-30T12:47:26;13.90;48.40
10903;DHT22;5504;47.312;11.060;2024-01-30T12:49:52;13.80;49.10
10903;DHT22;5504;47.312;11.060;2024-01-30T12:52:19;14.00;49.30
10903;DHT22;5504;47.312;11.060;2024-01-30T12:54:46;14.80;49.80
10903;DHT22;5504;47.312;11.060;2024-01-30T12:57:11;15.40;49.30
10903;DHT22;5504;47.312;11.060;2024-01-30T12:59:37;15.70;48.00
10903;DHT22;5504;47.312;11.060;2024-01-30T13:02:03;14.90;47.50
10903;DHT22;5504;47.312;11.060;2024-01-30T13:04:29;14.80;48.50
10903;DHT22;5504;47.312;11.060;2024-01-30T13:06:55;14.80;48.80
10903;DHT22;5504;47.312;11.060;2024-01-30T13:09:21;15.20;48.80
10903;DHT22;5504;47.312;11.060;2024-01-30T13:11:47;15.50;47.40
10903;DHT22;5504;47.312;11.060;2024-01-30T13:14:13;16.00;51.90
10903;DHT22;5504;47.312;11.060;2024-01-30T13:16:38;16.50;52.30
10903;DHT22;5504;47.312;11.060;2024-01-30T13:19:04;16.90;51.40
10903;DHT22;5504;47.312;11.060;2024-01-30T13:21:30;17.10;52.40
10903;DHT22;5504;47.312;11.060;2024-01-30T13:23:56;17.20;51.10
10903;DHT22;5504;47.312;11.060;2024-01-30T13:26:21;17.10;51.10
10903;DHT22;5504;47.312;11.060;2024-01-30T13:28:47;16.80;49.00
10903;DHT22;5504;47.312;11.060;2024-01-30T13:31:14;16.70;48.00
10903;DHT22;5504;47.312;11.060;2024-01-30T13:33:41;16.80;47.50
10903;DHT22;5504;47.312;11.060;2024-01-30T13:36:07;16.90;52.20
10903;DHT22;5504;47.312;11.060;2024-01-30T13:38:33;16.60;53.30
10903;DHT22;5504;47.312;11.060;2024-01-30T13:41:00;16.10;53.20
10903;DHT22;5504;47.312;11.060;2024-01-30T13:43:26;15.70;54.80
10903;DHT22;5504;47.312;11.060;2024-01-30T13:45:52;15.30;55.50
10903;DHT22;5504;47.312;11.060;2024-01-30T13:48:18;15.10;54.40
10903;DHT22;5504;47.312;11.060;2024-01-30T13:50:43;14.90;53.80
10903;DHT22;5504;47.312;11.060;2024-01-30T13:53:10;14.80;53.20
10903;DHT22;5504;47.312;11.060;2024-01-30T13:55:35;14.40;55.30
10903;DHT22;5504;47.312;11.060;2024-01-30T13:58:01;14.60;55.40
10903;DHT22;5504;47.312;11.060;2024-01-30T14:00:27;14.80;56.40
10903;DHT22;5504;47.312;11.060;2024-01-30T14:02:53;15.10;56.20
10903;DHT22;5504;47.312;11.060;2024-01-30T14:05:24;15.20;56.50
10903;DHT22;5504;47.312;11.060;2024-01-30T14:07:51;15.30;57.00
10903;DHT22;5504;47.312;11.060;2024-01-30T14:10:17;15.60;55.80
10903;DHT22;5504;47.312;11.060;2024-01-30T14:12:43;15.90;55.00
10903;DHT22;5504;47.312;11.060;2024-01-30T14:15:10;16.20;54.50
10903;DHT22;5504;47.312;11.060;2024-01-30T14:17:38;16.30;54.50
10903;DHT22;5504;47.312;11.060;2024-01-30T14:20:04;16.60;53.40
10903;DHT22;5504;47.312;11.060;2024-01-30T14:22:31;16.80;53.80
10903;DHT22;5504;47.312;11.060;2024-01-30T14:24:56;16.80;53.10
10903;DHT22;5504;47.312;11.060;2024-01-30T14:27:22;16.50;52.80
10903;DHT22;5504;47.312;11.060;2024-01-30T14:29:48;16.40;55.40
10903;DHT22;5504;47.312;11.060;2024-01-30T14:32:14;16.30;54.00
10903;DHT22;5504;47.312;11.060;2024-01-30T14:34:42;16.10;53.80
10903;DHT22;5504;47.312;11.060;2024-01-30T14:37:08;16.00;54.30
10903;DHT22;5504;47.312;11.060;2024-01-30T14:39:34;15.80;54.60
10903;DHT22;5504;47.312;11.060;2024-01-30T14:42:03;15.60;54.80
10903;DHT22;5504;47.312;11.060;2024-01-30T14:44:29;15.30;55.70
10903;DHT22;5504;47.312;11.060;2024-01-30T14:46:56;15.10;54.90
10903;DHT22;5504;47.312;11.060;2024-01-30T14:49:22;15.00;57.40
10903;DHT22;5504;47.312;11.060;2024-01-30T14:51:47;14.90;58.30
10903;DHT22;5504;47.312;11.060;2024-01-30T14:54:13;14.70;57.20
10903;DHT22;5504;47.312;11.060;2024-01-30T14:56:39;14.70;57.40
10903;DHT22;5504;47.312;11.060;2024-01-30T14:59:06;14.80;55.80
10903;DHT22;5504;47.312;11.060;2024-01-30T15:01:31;14.70;55.40
10903;DHT22;5504;47.312;11.060;2024-01-30T15:03:57;14.50;56.70
10903;DHT22;5504;47.312;11.060;2024-01-30T15:06:23;14.30;55.90
10903;DHT22;5504;47.312;11.060;2024-01-30T15:08:53;14.10;56.30
10903;DHT22;5504;47.312;11.060;2024-01-30T15:11:19;13.80;58.30
10903;DHT22;5504;47.312;11.060;2024-01-30T15:13:44;13.60;59.10
10903;DHT22;5504;47.312;11.060;2024-01-30T15:16:10;13.80;58.60
10903;DHT22;5504;47.312;11.060;2024-01-30T15:18:36;14.10;56.70
10903;DHT22;5504;47.312;11.060;2024-01-30T15:21:02;13.80;56.50
10903;DHT22;5504;47.312;11.060;2024-01-30T15:23:28;13.30;56.50
10903;DHT22;5504;47.312;11.060;2024-01-30T15:25:54;12.90;57.60
10903;DHT22;5504;47.312;11.060;2024-01-30T15:28:33;12.60;58.30
10903;DHT22;5504;47.312;11.060;2024-01-30T15:31:00;12.20;59.00
10903;DHT22;5504;47.312;11.060;2024-01-30T15:33:26;11.90;60.50
10903;DHT22;5504;47.312;11.060;2024-01-30T15:35:51;11.40;61.90